N70PPS KPIE-KPDK
Flight info
| Callsign | N70PPS |
|---|---|
| Flight time | 1h 11m |
| Altitude | 41000 |
| Route | LLRGO1 LACEN BRUTS Q118 JAMIZ WRGNZ WRGNZ3 |
| Aircraft | C700/M-SBDGHM1RWXY/LB2 |
Departure
| Time | 2026-04-28 21:24 |
|---|---|
| Airport | St. Petersburg Clearwater International Airport (KPIE) |
Arrival
| Time | 2026-04-28 22:35 |
|---|---|
| Airport | DeKalb Peachtree Airport (KPDK) |
| Time | Latitude | Longitude | Altitude | Speed | Heading |
|---|---|---|---|---|---|
| 2026-04-28 21:09 | 27.90195 | -82.68914 | 14 ft | 0 kts | 260° |
| 2026-04-28 21:20 | 27.90186 | -82.68919 | 14 ft | 2 kts | 186° |
| 2026-04-28 21:20 | 27.90180 | -82.68901 | 14 ft | 5 kts | 79° |
| 2026-04-28 21:20 | 27.90167 | -82.68861 | 14 ft | 8 kts | 158° |
| 2026-04-28 21:21 | 27.90090 | -82.68864 | 12 ft | 14 kts | 182° |
| 2026-04-28 21:21 | 27.89976 | -82.68868 | 10 ft | 19 kts | 180° |
| 2026-04-28 21:21 | 27.89834 | -82.68848 | 11 ft | 22 kts | 167° |
| 2026-04-28 21:21 | 27.89701 | -82.68819 | 11 ft | 17 kts | 146° |
| 2026-04-28 21:22 | 27.89690 | -82.68732 | 10 ft | 0 kts | 78° |
| 2026-04-28 21:23 | 27.89695 | -82.68706 | 9 ft | 8 kts | 78° |
| 2026-04-28 21:23 | 27.89724 | -82.68634 | 8 ft | 13 kts | 36° |
| 2026-04-28 21:23 | 27.89835 | -82.68642 | 8 ft | 29 kts | 351° |
| 2026-04-28 21:23 | 27.90323 | -82.68725 | 15 ft | 113 kts | 351° |
| 2026-04-28 21:24 | 27.91363 | -82.68918 | 304 ft | 180 kts | 349° |
| 2026-04-28 21:24 | 27.92686 | -82.69173 | 1588 ft | 204 kts | 349° |
| 2026-04-28 21:24 | 27.94167 | -82.69451 | 2737 ft | 232 kts | 351° |
| 2026-04-28 21:24 | 27.95855 | -82.69777 | 3656 ft | 258 kts | 354° |
| 2026-04-28 21:25 | 27.97658 | -82.69935 | 4690 ft | 263 kts | 1° |
| 2026-04-28 21:25 | 27.99495 | -82.69957 | 6062 ft | 265 kts | 2° |
| 2026-04-28 21:25 | 28.01362 | -82.70040 | 7389 ft | 271 kts | 359° |
| 2026-04-28 21:25 | 28.03256 | -82.70236 | 8843 ft | 274 kts | 356° |
| 2026-04-28 21:26 | 28.05163 | -82.70447 | 10395 ft | 278 kts | 358° |
| 2026-04-28 21:26 | 28.07118 | -82.70604 | 11814 ft | 283 kts | 358° |
| 2026-04-28 21:26 | 28.09108 | -82.70730 | 13253 ft | 288 kts | 358° |
| 2026-04-28 21:26 | 28.11112 | -82.70855 | 14567 ft | 294 kts | 359° |
| 2026-04-28 21:27 | 28.13184 | -82.70865 | 15797 ft | 301 kts | 1° |
| 2026-04-28 21:27 | 28.15300 | -82.70823 | 17031 ft | 308 kts | 1° |
| 2026-04-28 21:27 | 28.17467 | -82.70793 | 18236 ft | 315 kts | 359° |
| 2026-04-28 21:27 | 28.19683 | -82.70798 | 19295 ft | 322 kts | 359° |
| 2026-04-28 21:28 | 28.21939 | -82.70811 | 20375 ft | 327 kts | 359° |
| 2026-04-28 21:28 | 28.24231 | -82.70799 | 21442 ft | 332 kts | 360° |
| 2026-04-28 21:28 | 28.26553 | -82.70901 | 22464 ft | 337 kts | 351° |
| 2026-04-28 21:28 | 28.28840 | -82.71577 | 23488 ft | 342 kts | 340° |
| 2026-04-28 21:29 | 28.31008 | -82.72732 | 24359 ft | 347 kts | 332° |
| 2026-04-28 21:29 | 28.33145 | -82.74042 | 25271 ft | 350 kts | 333° |
| 2026-04-28 21:29 | 28.35356 | -82.75252 | 26074 ft | 360 kts | 335° |
| 2026-04-28 21:29 | 28.37664 | -82.76487 | 26122 ft | 365 kts | 334° |
| 2026-04-28 21:30 | 28.39914 | -82.77740 | 26123 ft | 355 kts | 336° |
| 2026-04-28 21:30 | 28.42260 | -82.78564 | 26115 ft | 354 kts | 347° |
| 2026-04-28 21:30 | 28.44668 | -82.79017 | 26112 ft | 358 kts | 351° |
| 2026-04-28 21:30 | 28.47148 | -82.79415 | 26264 ft | 362 kts | 351° |
| 2026-04-28 21:31 | 28.49628 | -82.79843 | 27267 ft | 360 kts | 350° |
| 2026-04-28 21:31 | 28.52125 | -82.80280 | 28114 ft | 365 kts | 351° |
| 2026-04-28 21:31 | 28.54652 | -82.80692 | 28950 ft | 369 kts | 351° |
| 2026-04-28 21:31 | 28.57213 | -82.81086 | 29782 ft | 374 kts | 351° |
| 2026-04-28 21:32 | 28.59802 | -82.81510 | 30542 ft | 378 kts | 350° |
| 2026-04-28 21:32 | 28.62411 | -82.82007 | 31205 ft | 383 kts | 349° |
| 2026-04-28 21:32 | 28.65057 | -82.82532 | 31837 ft | 388 kts | 349° |
| 2026-04-28 21:32 | 28.67747 | -82.83018 | 32436 ft | 393 kts | 350° |
| 2026-04-28 21:33 | 28.70476 | -82.83473 | 33026 ft | 398 kts | 351° |
| 2026-04-28 21:33 | 28.73236 | -82.83951 | 33612 ft | 403 kts | 350° |
| 2026-04-28 21:33 | 28.76019 | -82.84477 | 34203 ft | 407 kts | 349° |
| 2026-04-28 21:33 | 28.78831 | -82.85014 | 34748 ft | 410 kts | 349° |
| 2026-04-28 21:34 | 28.81620 | -82.85512 | 35353 ft | 411 kts | 350° |
| 2026-04-28 21:34 | 28.84452 | -82.85995 | 35944 ft | 412 kts | 349° |
| 2026-04-28 21:34 | 28.87285 | -82.86500 | 36503 ft | 413 kts | 349° |
| 2026-04-28 21:34 | 28.90122 | -82.87036 | 37018 ft | 414 kts | 348° |
| 2026-04-28 21:35 | 28.92970 | -82.87572 | 37512 ft | 415 kts | 349° |
| 2026-04-28 21:35 | 28.95827 | -82.88079 | 37979 ft | 416 kts | 349° |
| 2026-04-28 21:35 | 28.98697 | -82.88577 | 38414 ft | 416 kts | 349° |
| 2026-04-28 21:35 | 29.01560 | -82.89096 | 38821 ft | 417 kts | 348° |
| 2026-04-28 21:36 | 29.04427 | -82.89637 | 39109 ft | 418 kts | 348° |
| 2026-04-28 21:36 | 29.07310 | -82.90173 | 39336 ft | 421 kts | 348° |
| 2026-04-28 21:36 | 29.10216 | -82.90689 | 39560 ft | 423 kts | 348° |
| 2026-04-28 21:36 | 29.13092 | -82.91195 | 39785 ft | 425 kts | 348° |
| 2026-04-28 21:37 | 29.16020 | -82.91731 | 40000 ft | 427 kts | 347° |
| 2026-04-28 21:37 | 29.18956 | -82.92285 | 40205 ft | 429 kts | 347° |
| 2026-04-28 21:37 | 29.21911 | -82.92830 | 40404 ft | 431 kts | 347° |
| 2026-04-28 21:37 | 29.24883 | -82.93357 | 40596 ft | 433 kts | 348° |
| 2026-04-28 21:38 | 29.27869 | -82.93889 | 40783 ft | 435 kts | 347° |
| 2026-04-28 21:38 | 29.30851 | -82.94442 | 41100 ft | 433 kts | 347° |
| 2026-04-28 21:38 | 29.36865 | -82.95561 | 41105 ft | 439 kts | 347° |
| 2026-04-28 21:39 | 29.42778 | -82.96613 | 41099 ft | 430 kts | 347° |
| 2026-04-28 21:39 | 29.48750 | -82.97745 | 41099 ft | 437 kts | 347° |
| 2026-04-28 21:40 | 29.54517 | -82.99631 | 41100 ft | 425 kts | 335° |
| 2026-04-28 21:40 | 29.59947 | -83.02287 | 41097 ft | 426 kts | 335° |
| 2026-04-28 21:41 | 29.65491 | -83.04802 | 41102 ft | 429 kts | 335° |
| 2026-04-28 21:41 | 29.70958 | -83.07492 | 41107 ft | 426 kts | 334° |
| 2026-04-28 21:42 | 29.76431 | -83.10085 | 41110 ft | 424 kts | 335° |
| 2026-04-28 21:42 | 29.81897 | -83.12666 | 41113 ft | 426 kts | 334° |
| 2026-04-28 21:43 | 29.87344 | -83.15341 | 41128 ft | 429 kts | 335° |
| 2026-04-28 21:43 | 29.92859 | -83.17912 | 41130 ft | 426 kts | 335° |
| 2026-04-28 21:44 | 29.98288 | -83.20569 | 41133 ft | 423 kts | 334° |
| 2026-04-28 21:44 | 30.03750 | -83.23180 | 41135 ft | 426 kts | 335° |
| 2026-04-28 21:45 | 30.09243 | -83.25799 | 41140 ft | 427 kts | 334° |
| 2026-04-28 21:45 | 30.14699 | -83.28474 | 41135 ft | 425 kts | 334° |
| 2026-04-28 21:46 | 30.20163 | -83.31052 | 41145 ft | 423 kts | 335° |
| 2026-04-28 21:46 | 30.25899 | -83.32749 | 41144 ft | 431 kts | 348° |
| 2026-04-28 21:47 | 30.31928 | -83.33320 | 41139 ft | 436 kts | 350° |
| 2026-04-28 21:47 | 30.34921 | -83.33664 | 40898 ft | 437 kts | 349° |
| 2026-04-28 21:47 | 30.37900 | -83.34057 | 40663 ft | 426 kts | 349° |
| 2026-04-28 21:48 | 30.40819 | -83.34392 | 40420 ft | 416 kts | 351° |
| 2026-04-28 21:48 | 30.43680 | -83.34648 | 40176 ft | 409 kts | 351° |
| 2026-04-28 21:48 | 30.46509 | -83.34905 | 39932 ft | 407 kts | 351° |
| 2026-04-28 21:48 | 30.49349 | -83.35228 | 39697 ft | 409 kts | 350° |
| 2026-04-28 21:49 | 30.52181 | -83.35582 | 39466 ft | 410 kts | 350° |
| 2026-04-28 21:49 | 30.55021 | -83.35897 | 39240 ft | 408 kts | 351° |
| 2026-04-28 21:49 | 30.57841 | -83.36160 | 39010 ft | 404 kts | 352° |
| 2026-04-28 21:49 | 30.60600 | -83.36424 | 38781 ft | 401 kts | 351° |
| 2026-04-28 21:50 | 30.63366 | -83.36736 | 38503 ft | 398 kts | 351° |
| 2026-04-28 21:50 | 30.66127 | -83.37069 | 38222 ft | 399 kts | 351° |
| 2026-04-28 21:50 | 30.71668 | -83.37642 | 38159 ft | 401 kts | 352° |
| 2026-04-28 21:51 | 30.77280 | -83.38238 | 38076 ft | 408 kts | 351° |
| 2026-04-28 21:51 | 30.80111 | -83.38569 | 37730 ft | 408 kts | 351° |
| 2026-04-28 21:51 | 30.82933 | -83.38876 | 37390 ft | 410 kts | 351° |
| 2026-04-28 21:52 | 30.85841 | -83.39171 | 37063 ft | 427 kts | 352° |
| 2026-04-28 21:52 | 30.88848 | -83.39482 | 36746 ft | 436 kts | 352° |
| 2026-04-28 21:52 | 30.91837 | -83.39811 | 36438 ft | 437 kts | 351° |
| 2026-04-28 21:52 | 30.94865 | -83.40153 | 36113 ft | 437 kts | 351° |
| 2026-04-28 21:53 | 30.96913 | -83.40379 | 35903 ft | 438 kts | 352° |
| 2026-04-28 21:54 | 31.19225 | -83.42767 | 33732 ft | 459 kts | 352° |
| 2026-04-28 21:55 | 31.22408 | -83.43118 | 33397 ft | 460 kts | 352° |
| 2026-04-28 21:55 | 31.25596 | -83.43483 | 33066 ft | 461 kts | 352° |
| 2026-04-28 21:55 | 31.28795 | -83.43837 | 32738 ft | 461 kts | 352° |
| 2026-04-28 21:55 | 31.31992 | -83.44170 | 32417 ft | 461 kts | 352° |
| 2026-04-28 21:56 | 31.35196 | -83.44503 | 32095 ft | 461 kts | 352° |
| 2026-04-28 21:56 | 31.38393 | -83.44856 | 31782 ft | 461 kts | 352° |
| 2026-04-28 21:56 | 31.41590 | -83.45225 | 31474 ft | 462 kts | 352° |
| 2026-04-28 21:56 | 31.44793 | -83.45582 | 31166 ft | 462 kts | 353° |
| 2026-04-28 21:57 | 31.47996 | -83.45916 | 30858 ft | 462 kts | 353° |
| 2026-04-28 21:57 | 31.51201 | -83.46248 | 30561 ft | 463 kts | 353° |
| 2026-04-28 21:57 | 31.54419 | -83.46604 | 30263 ft | 466 kts | 353° |
| 2026-04-28 21:57 | 31.57658 | -83.46979 | 29903 ft | 468 kts | 352° |
| 2026-04-28 21:58 | 31.60865 | -83.47340 | 29508 ft | 469 kts | 353° |
| 2026-04-28 21:58 | 31.64123 | -83.47681 | 29110 ft | 467 kts | 353° |
| 2026-04-28 21:58 | 31.67360 | -83.48013 | 28719 ft | 467 kts | 353° |
| 2026-04-28 21:58 | 31.70603 | -83.48371 | 28336 ft | 469 kts | 352° |
| 2026-04-28 21:59 | 31.73858 | -83.48754 | 27957 ft | 471 kts | 352° |
| 2026-04-28 21:59 | 31.77137 | -83.49131 | 27579 ft | 473 kts | 352° |
| 2026-04-28 21:59 | 31.80380 | -83.49474 | 27218 ft | 474 kts | 353° |
| 2026-04-28 22:00 | 31.86744 | -83.50128 | 26480 ft | 439 kts | 352° |
| 2026-04-28 22:00 | 31.89766 | -83.50484 | 26119 ft | 438 kts | 352° |
| 2026-04-28 22:00 | 31.92822 | -83.50858 | 25761 ft | 444 kts | 352° |
| 2026-04-28 22:00 | 31.95870 | -83.51199 | 25420 ft | 446 kts | 352° |
| 2026-04-28 22:01 | 31.98959 | -83.51507 | 25074 ft | 445 kts | 353° |
| 2026-04-28 22:01 | 32.02046 | -83.51819 | 24728 ft | 445 kts | 352° |
| 2026-04-28 22:01 | 32.05116 | -83.52169 | 24396 ft | 444 kts | 352° |
| 2026-04-28 22:01 | 32.08188 | -83.52546 | 24172 ft | 443 kts | 351° |
| 2026-04-28 22:02 | 32.11271 | -83.52903 | 24173 ft | 447 kts | 352° |
| 2026-04-28 22:02 | 32.14387 | -83.53226 | 24175 ft | 449 kts | 352° |
| 2026-04-28 22:02 | 32.17503 | -83.53536 | 24172 ft | 448 kts | 352° |
| 2026-04-28 22:02 | 32.20600 | -83.53874 | 24170 ft | 446 kts | 352° |
| 2026-04-28 22:03 | 32.23689 | -83.54248 | 24171 ft | 445 kts | 351° |
| 2026-04-28 22:03 | 32.26780 | -83.54622 | 24169 ft | 447 kts | 352° |
| 2026-04-28 22:03 | 32.29833 | -83.54952 | 24171 ft | 440 kts | 352° |
| 2026-04-28 22:03 | 32.32843 | -83.55245 | 24171 ft | 429 kts | 352° |
| 2026-04-28 22:04 | 32.35828 | -83.55559 | 24167 ft | 432 kts | 352° |
| 2026-04-28 22:04 | 32.38824 | -83.55922 | 24164 ft | 432 kts | 351° |
| 2026-04-28 22:04 | 32.41808 | -83.56292 | 24164 ft | 430 kts | 351° |
| 2026-04-28 22:04 | 32.44788 | -83.56623 | 24163 ft | 429 kts | 352° |
| 2026-04-28 22:05 | 32.47769 | -83.56918 | 24157 ft | 430 kts | 352° |
| 2026-04-28 22:05 | 32.50756 | -83.57229 | 24165 ft | 432 kts | 352° |
| 2026-04-28 22:05 | 32.53752 | -83.57583 | 24162 ft | 433 kts | 351° |
| 2026-04-28 22:05 | 32.56746 | -83.57953 | 24166 ft | 431 kts | 351° |
| 2026-04-28 22:06 | 32.59727 | -83.58291 | 24170 ft | 430 kts | 352° |
| 2026-04-28 22:06 | 32.62671 | -83.58591 | 24165 ft | 432 kts | 352° |
| 2026-04-28 22:06 | 32.65672 | -83.58902 | 24167 ft | 433 kts | 352° |
| 2026-04-28 22:06 | 32.68680 | -83.59250 | 24167 ft | 434 kts | 351° |
| 2026-04-28 22:07 | 32.71688 | -83.59620 | 23843 ft | 436 kts | 351° |
| 2026-04-28 22:07 | 32.74688 | -83.59970 | 23248 ft | 429 kts | 351° |
| 2026-04-28 22:07 | 32.77635 | -83.60274 | 22680 ft | 421 kts | 352° |
| 2026-04-28 22:07 | 32.80549 | -83.60571 | 22126 ft | 418 kts | 351° |
| 2026-04-28 22:08 | 32.83439 | -83.60902 | 21575 ft | 417 kts | 351° |
| 2026-04-28 22:08 | 32.86318 | -83.61260 | 21028 ft | 414 kts | 351° |
| 2026-04-28 22:08 | 32.89174 | -83.61600 | 20442 ft | 410 kts | 351° |
| 2026-04-28 22:08 | 32.91998 | -83.61899 | 19892 ft | 404 kts | 352° |
| 2026-04-28 22:09 | 32.94780 | -83.62181 | 19363 ft | 397 kts | 352° |
| 2026-04-28 22:09 | 32.97515 | -83.62485 | 18845 ft | 393 kts | 351° |
| 2026-04-28 22:09 | 33.00227 | -83.62818 | 18307 ft | 391 kts | 351° |
| 2026-04-28 22:09 | 33.02927 | -83.63147 | 17776 ft | 388 kts | 351° |
| 2026-04-28 22:10 | 33.05612 | -83.63441 | 17263 ft | 387 kts | 352° |
| 2026-04-28 22:10 | 33.08295 | -83.63717 | 16754 ft | 387 kts | 351° |
| 2026-04-28 22:10 | 33.10944 | -83.64006 | 16251 ft | 387 kts | 351° |
| 2026-04-28 22:10 | 33.13618 | -83.64325 | 15740 ft | 385 kts | 350° |
| 2026-04-28 22:11 | 33.16277 | -83.64649 | 15235 ft | 383 kts | 351° |
| 2026-04-28 22:11 | 33.18928 | -83.64951 | 14731 ft | 382 kts | 351° |
| 2026-04-28 22:11 | 33.21577 | -83.65232 | 14228 ft | 382 kts | 351° |
| 2026-04-28 22:11 | 33.24219 | -83.65516 | 13701 ft | 381 kts | 351° |
| 2026-04-28 22:12 | 33.26851 | -83.65821 | 13190 ft | 377 kts | 350° |
| 2026-04-28 22:12 | 33.29457 | -83.66138 | 12692 ft | 374 kts | 350° |
| 2026-04-28 22:12 | 33.32010 | -83.66438 | 12204 ft | 372 kts | 351° |
| 2026-04-28 22:12 | 33.34578 | -83.66719 | 11716 ft | 370 kts | 351° |
| 2026-04-28 22:13 | 33.37114 | -83.67005 | 11231 ft | 357 kts | 349° |
| 2026-04-28 22:13 | 33.39397 | -83.67706 | 11107 ft | 321 kts | 336° |
| 2026-04-28 22:13 | 33.41402 | -83.68598 | 11095 ft | 294 kts | 335° |
| 2026-04-28 22:13 | 33.43288 | -83.69367 | 11091 ft | 282 kts | 338° |
| 2026-04-28 22:14 | 33.45183 | -83.70094 | 10857 ft | 292 kts | 337° |
| 2026-04-28 22:14 | 33.47116 | -83.70882 | 10545 ft | 293 kts | 336° |
| 2026-04-28 22:14 | 33.49019 | -83.71695 | 10244 ft | 287 kts | 335° |
| 2026-04-28 22:14 | 33.50876 | -83.72488 | 9934 ft | 288 kts | 335° |
| 2026-04-28 22:15 | 33.52749 | -83.73285 | 9602 ft | 281 kts | 335° |
| 2026-04-28 22:15 | 33.54544 | -83.74043 | 9278 ft | 274 kts | 336° |
| 2026-04-28 22:15 | 33.56329 | -83.74792 | 8944 ft | 269 kts | 336° |
| 2026-04-28 22:15 | 33.58090 | -83.75531 | 8626 ft | 268 kts | 336° |
| 2026-04-28 22:16 | 33.59847 | -83.76269 | 8306 ft | 267 kts | 336° |
| 2026-04-28 22:16 | 33.61600 | -83.77004 | 7987 ft | 266 kts | 336° |
| 2026-04-28 22:16 | 33.63351 | -83.77738 | 7668 ft | 265 kts | 336° |
| 2026-04-28 22:16 | 33.65087 | -83.78466 | 7363 ft | 265 kts | 336° |
| 2026-04-28 22:17 | 33.66818 | -83.79193 | 7109 ft | 261 kts | 337° |
| 2026-04-28 22:17 | 33.68529 | -83.79874 | 7102 ft | 259 kts | 338° |
| 2026-04-28 22:17 | 33.70266 | -83.80535 | 7098 ft | 263 kts | 338° |
| 2026-04-28 22:17 | 33.71996 | -83.81239 | 7100 ft | 263 kts | 336° |
| 2026-04-28 22:18 | 33.73725 | -83.81979 | 7006 ft | 266 kts | 336° |
| 2026-04-28 22:18 | 33.75479 | -83.82715 | 6722 ft | 265 kts | 337° |
| 2026-04-28 22:18 | 33.77211 | -83.83433 | 6432 ft | 262 kts | 337° |
| 2026-04-28 22:18 | 33.78932 | -83.84148 | 6140 ft | 260 kts | 337° |
| 2026-04-28 22:19 | 33.80612 | -83.84854 | 5848 ft | 259 kts | 336° |
| 2026-04-28 22:19 | 33.82209 | -83.85785 | 5555 ft | 253 kts | 322° |
| 2026-04-28 22:19 | 33.83541 | -83.87135 | 5257 ft | 247 kts | 311° |
| 2026-04-28 22:19 | 33.84736 | -83.88616 | 4966 ft | 245 kts | 311° |
| 2026-04-28 22:20 | 33.85944 | -83.90064 | 4665 ft | 246 kts | 311° |
| 2026-04-28 22:20 | 33.87155 | -83.91524 | 4361 ft | 246 kts | 311° |
| 2026-04-28 22:20 | 33.88357 | -83.92986 | 4116 ft | 245 kts | 310° |
| 2026-04-28 22:20 | 33.89548 | -83.94431 | 4114 ft | 244 kts | 311° |
| 2026-04-28 22:21 | 33.90750 | -83.95891 | 4112 ft | 246 kts | 311° |
| 2026-04-28 22:21 | 33.91953 | -83.97350 | 4111 ft | 246 kts | 311° |
| 2026-04-28 22:21 | 33.92875 | -83.98467 | 4112 ft | 247 kts | 311° |
| 2026-04-28 22:21 | 33.94066 | -83.99916 | 4110 ft | 243 kts | 311° |
| 2026-04-28 22:22 | 33.95219 | -84.01310 | 4106 ft | 227 kts | 311° |
| 2026-04-28 22:22 | 33.96303 | -84.02626 | 4098 ft | 217 kts | 310° |
| 2026-04-28 22:22 | 33.97353 | -84.03910 | 4099 ft | 214 kts | 310° |
| 2026-04-28 22:22 | 33.98401 | -84.05186 | 4096 ft | 214 kts | 310° |
| 2026-04-28 22:23 | 33.99325 | -84.06580 | 4102 ft | 212 kts | 298° |
| 2026-04-28 22:23 | 34.00118 | -84.08080 | 4101 ft | 211 kts | 301° |
| 2026-04-28 22:23 | 34.00947 | -84.09511 | 4096 ft | 205 kts | 301° |
| 2026-04-28 22:23 | 34.01906 | -84.10764 | 4091 ft | 208 kts | 324° |
| 2026-04-28 22:24 | 34.03363 | -84.11161 | 3811 ft | 227 kts | 2° |
| 2026-04-28 22:24 | 34.04876 | -84.10544 | 3507 ft | 232 kts | 23° |
| 2026-04-28 22:24 | 34.05839 | -84.09982 | 3318 ft | 230 kts | 24° |
| 2026-04-28 22:24 | 34.07246 | -84.09165 | 3103 ft | 221 kts | 24° |
| 2026-04-28 22:25 | 34.09029 | -84.08134 | 3098 ft | 211 kts | 24° |
| 2026-04-28 22:25 | 34.10343 | -84.07370 | 3094 ft | 209 kts | 24° |
| 2026-04-28 22:25 | 34.11648 | -84.06610 | 3100 ft | 207 kts | 24° |
| 2026-04-28 22:25 | 34.12536 | -84.06194 | 3086 ft | 205 kts | 10° |
| 2026-04-28 22:26 | 34.13881 | -84.06438 | 3094 ft | 191 kts | 326° |
| 2026-04-28 22:26 | 34.14680 | -84.07584 | 3095 ft | 179 kts | 294° |
| 2026-04-28 22:26 | 34.15230 | -84.08938 | 3093 ft | 179 kts | 295° |
| 2026-04-28 22:26 | 34.15506 | -84.10348 | 3083 ft | 172 kts | 260° |
| 2026-04-28 22:27 | 34.14964 | -84.11589 | 3086 ft | 169 kts | 232° |
| 2026-04-28 22:27 | 34.14266 | -84.12745 | 3092 ft | 171 kts | 234° |
| 2026-04-28 22:27 | 34.13580 | -84.13917 | 3092 ft | 170 kts | 234° |
| 2026-04-28 22:27 | 34.12892 | -84.15073 | 3094 ft | 169 kts | 234° |
| 2026-04-28 22:28 | 34.12206 | -84.16223 | 3092 ft | 169 kts | 234° |
| 2026-04-28 22:28 | 34.11306 | -84.17754 | 3090 ft | 169 kts | 234° |
| 2026-04-28 22:28 | 34.10843 | -84.18532 | 3095 ft | 169 kts | 234° |
| 2026-04-28 22:28 | 34.10074 | -84.19605 | 3091 ft | 170 kts | 219° |
| 2026-04-28 22:29 | 34.09047 | -84.20308 | 3092 ft | 171 kts | 205° |
| 2026-04-28 22:29 | 34.07953 | -84.20873 | 3086 ft | 171 kts | 204° |
| 2026-04-28 22:29 | 34.06844 | -84.21397 | 3084 ft | 171 kts | 203° |
| 2026-04-28 22:29 | 34.05730 | -84.21901 | 3079 ft | 172 kts | 201° |
| 2026-04-28 22:30 | 34.04638 | -84.22383 | 3077 ft | 163 kts | 203° |
| 2026-04-28 22:30 | 34.03556 | -84.22893 | 2997 ft | 169 kts | 202° |
| 2026-04-28 22:30 | 34.02499 | -84.23345 | 2974 ft | 158 kts | 202° |
| 2026-04-28 22:30 | 34.01510 | -84.23810 | 2979 ft | 147 kts | 203° |
| 2026-04-28 22:31 | 34.00581 | -84.24216 | 2987 ft | 134 kts | 201° |
| 2026-04-28 22:31 | 33.99748 | -84.24602 | 2977 ft | 124 kts | 204° |
| 2026-04-28 22:31 | 33.98939 | -84.24961 | 2977 ft | 124 kts | 201° |
| 2026-04-28 22:31 | 33.98142 | -84.25323 | 2976 ft | 120 kts | 205° |
| 2026-04-28 22:32 | 33.97347 | -84.25682 | 2930 ft | 125 kts | 201° |
| 2026-04-28 22:32 | 33.96523 | -84.26050 | 2772 ft | 126 kts | 204° |
| 2026-04-28 22:32 | 33.95749 | -84.26405 | 2621 ft | 118 kts | 201° |
| 2026-04-28 22:32 | 33.94969 | -84.26743 | 2466 ft | 122 kts | 202° |
| 2026-04-28 22:33 | 33.94183 | -84.27114 | 2303 ft | 121 kts | 200° |
| 2026-04-28 22:33 | 33.93388 | -84.27457 | 2148 ft | 123 kts | 200° |
| 2026-04-28 22:33 | 33.92602 | -84.27834 | 1951 ft | 120 kts | 202° |
| 2026-04-28 22:33 | 33.91852 | -84.28206 | 1783 ft | 117 kts | 200° |
| 2026-04-28 22:34 | 33.91087 | -84.28539 | 1637 ft | 117 kts | 198° |
| 2026-04-28 22:34 | 33.90321 | -84.28866 | 1473 ft | 116 kts | 199° |
| 2026-04-28 22:34 | 33.89563 | -84.29198 | 1340 ft | 115 kts | 199° |
| 2026-04-28 22:34 | 33.88812 | -84.29521 | 1165 ft | 113 kts | 199° |
| 2026-04-28 22:35 | 33.88079 | -84.29855 | 1013 ft | 110 kts | 199° |
| 2026-04-28 22:35 | 33.87538 | -84.30093 | 997 ft | 37 kts | 203° |
| 2026-04-28 22:35 | 33.87343 | -84.30180 | 995 ft | 20 kts | 200° |
| 2026-04-28 22:35 | 33.87211 | -84.30240 | 999 ft | 21 kts | 201° |
| 2026-04-28 22:36 | 33.87129 | -84.30323 | 1001 ft | 15 kts | 288° |
| 2026-04-28 22:36 | 33.87148 | -84.30384 | 997 ft | 0 kts | 290° |
| 2026-04-28 22:36 | 33.87148 | -84.30385 | 997 ft | 1 kts | 290° |
| 2026-04-28 22:37 | 33.87176 | -84.30475 | 995 ft | 17 kts | 290° |
| 2026-04-28 22:37 | 33.87239 | -84.30493 | 996 ft | 12 kts | 21° |
| 2026-04-28 22:37 | 33.87331 | -84.30452 | 996 ft | 16 kts | 20° |
| 2026-04-28 22:37 | 33.87455 | -84.30397 | 992 ft | 21 kts | 20° |
| 2026-04-28 22:38 | 33.87559 | -84.30355 | 993 ft | 11 kts | 24° |
| 2026-04-28 22:38 | 33.87660 | -84.30315 | 988 ft | 18 kts | 348° |
| 2026-04-28 22:38 | 33.87789 | -84.30379 | 991 ft | 22 kts | 337° |
| 2026-04-28 22:38 | 33.87870 | -84.30449 | 992 ft | 10 kts | 240° |
| 2026-04-28 22:39 | 33.87853 | -84.30530 | 989 ft | 9 kts | 282° |
| 2026-04-28 22:39 | 33.87873 | -84.30544 | 994 ft | 0 kts | 341° |